Flight Track Log - Related Links

Times and Time Zones

All times are in EDT time to prevent confusion due to time zone crossing. See the CXA881 flight status page for this flight to view local times or setup timezone preferences in your user account.

Time Position Orientation Groundspeed Altitude Reporting Facility
EDT Latitude Longitude Course Direction KTS MPH feet Rate Location/Type
Wed 05:44:00 AM 24.6675 118.8860 80° East  Level Estimated
Wed 05:45:00 AM 24.6751 118.9335 80° East  Level Estimated
Wed 05:46:00 AM 24.6827 118.9809 80° East  Level Estimated
Wed 05:47:00 AM 24.6902 119.0284 80° East  Level Estimated
Wed 05:48:00 AM 24.6978 119.0758 80° East  Level Estimated
Wed 05:49:00 AM 24.7053 119.1233 80° East  Level Estimated
Wed 05:50:00 AM 24.7128 119.1708 80° East  Level Estimated
Wed 05:51:00 AM 24.7203 119.2182 80° East  Level Estimated
Wed 05:52:00 AM 24.7278 119.2657 80° East  Level Estimated
Wed 05:53:00 AM 24.7353 119.3132 80° East  Level Estimated
Wed 05:54:00 AM 24.7427 119.3607 80° East  Level Estimated
Wed 05:55:00 AM 24.7502 119.4082 80° East  Level Estimated
Wed 05:56:00 AM 24.7576 119.4557 80° East  Level Estimated
Wed 05:57:00 AM 24.7650 119.5032 80° East  Level Estimated
Wed 05:58:00 AM 24.7724 119.5507 80° East  Level Estimated
Wed 05:59:00 AM 24.7798 119.5983 80° East  Level Estimated
Wed 06:00:00 AM 24.7871 119.6458 80° East  Level Estimated
Wed 06:01:00 AM 24.7945 119.6933 80° East  Level Estimated
Wed 06:02:00 AM 24.8018 119.7409 80° East  Level Estimated
Wed 06:03:00 AM 24.8092 119.7884 80° East  Level Estimated
Wed 06:04:00 AM 24.8165 119.8360 80° East  Level Estimated
Wed 06:05:00 AM 24.8238 119.8835 80° East  Level Estimated
Wed 06:06:00 AM 24.8310 119.9311 80° East  Level Estimated
Wed 06:07:00 AM 24.8383 119.9786 80° East  Level Estimated
Wed 06:08:00 AM 24.8455 120.0262 80° East  Level Estimated
Wed 06:09:00 AM 24.8528 120.0738 80° East  Level Estimated
Wed 06:10:00 AM 24.8600 120.1214 81° East  Level Estimated
Wed 06:11:00 AM 24.8672 120.1690 81° East  Level Estimated
Wed 06:12:00 AM 24.8744 120.2166 81° East  Level Estimated
Wed 06:13:00 AM 24.8815 120.2642 81° East  Level Estimated
Wed 06:14:00 AM 24.8887 120.3118 81° East  Level Estimated
Wed 06:15:00 AM 24.8958 120.3594 81° East  Level Estimated
Wed 06:16:00 AM 24.9030 120.4070 81° East  Level Estimated
Wed 06:17:00 AM 24.9101 120.4546 81° East  Level Estimated
Wed 06:18:00 AM 24.9172 120.5022 81° East  Level Estimated
Wed 06:19:00 AM 24.9242 120.5499 81° East  Level Estimated
Wed 06:20:00 AM 24.9313 120.5975 81° East  Level Estimated
Wed 06:21:00 AM 24.9384 120.6452 81° East  Level Estimated
Wed 06:22:00 AM 24.9454 120.6928 81° East  Level Estimated
Wed 06:23:00 AM 24.9524 120.7405 81° East  Level Estimated
Wed 06:24:00 AM 24.9594 120.7881 81° East  Level Estimated
Wed 06:25:00 AM 24.9664 120.8358 81° East  Level Estimated
Wed 06:25:12 AM 24.3046 120.5389 34° Northeast 388 447 18,700  Level FlightAware ADS-B
Wed 06:25:44 AM 24.3512 120.5733 34° Northeast 383 441 17,600 -2,000 Descending FlightAware ADS-B
Wed 06:26:15 AM 24.3970 120.6071 34° Northeast 376 433 16,600 -1,770 Descending FlightAware ADS-B
Wed 06:26:45 AM 24.4393 120.6382 34° Northeast 368 423 15,800 -1,742 Descending FlightAware ADS-B
Wed 06:27:17 AM 24.4850 120.6720 34° Northeast 365 420 14,800 -1,846 Descending FlightAware ADS-B
Wed 06:27:50 AM 24.5285 120.7043 34° Northeast 358 412 13,800 -1,810 Descending FlightAware ADS-B
Wed 06:28:20 AM 24.5697 120.7398 44° Northeast 354 407 12,900 -1,781 Descending FlightAware ADS-B
Wed 06:28:54 AM 24.6068 120.7830 47° Northeast 350 403 11,900 -1,754 Descending FlightAware ADS-B
Wed 06:29:25 AM 24.6411 120.8240 48° Northeast 343 395 11,000 -1,524 Descending FlightAware ADS-B
Wed 06:29:57 AM 24.6738 120.8632 48° Northeast 332 382 10,300 -1,469 Descending FlightAware ADS-B
Wed 06:30:14 AM 24.6919 120.8848 48° Northeast 328 377 9,800 -1,818 Descending FlightAware ADS-B
Wed 06:30:30 AM 24.7062 120.9020 48° Northeast 327 376 9,300 -1,886 Descending FlightAware ADS-B
Wed 06:30:49 AM 24.7269 120.9267 48° Northeast 326 375 8,700 -1,833 Descending FlightAware ADS-B
Wed 06:31:06 AM 24.7457 120.9494 48° Northeast 325 374 8,200 -1,636 Descending FlightAware ADS-B
Wed 06:31:22 AM 24.7598 120.9666 48° Northeast 319 367 7,800 -1,000 Descending FlightAware ADS-B
Wed 06:31:42 AM 24.7790 120.9896 48° Northeast 307 353 7,600 -706 Descending FlightAware ADS-B
Wed 06:32:13 AM 24.8095 121.0262 48° Northeast 289 333 7,200 -706 Descending FlightAware ADS-B
Wed 06:32:33 AM 24.8274 121.0474 47° Northeast 288 331 7,000 -686 Descending FlightAware ADS-B
Wed 06:32:48 AM 24.8418 121.0644 47° Northeast 292 336 6,800 -815 Descending FlightAware ADS-B
Wed 06:33:54 AM 24.9015 121.1357 48° Northeast 291 335 5,900 -818 Descending FlightAware ADS-B
Wed 06:36:00 AM 24.9390 121.2282 66° East  Level Estimated
Wed 06:37:00 AM 24.9569 121.2723 66° East  Level Estimated
Wed 06:38:00 AM 24.9747 121.3164 66° East  Level Estimated
Wed 06:39:00 AM 24.9925 121.3605 66° East  Level Estimated
Wed 06:40:00 AM 25.0103 121.4047 66° East  Level Estimated
Wed 06:41:00 AM 25.0281 121.4488 66° East  Level Estimated
Wed 06:42:00 AM 25.0458 121.4930 66° East  Level Estimated
Wed 06:43:00 AM 25.0636 121.5371 66° East  Level Estimated
Wed 06:44:00 AM 25.0694 121.5517 66° East  Level Estimated
Wed 06:45:00 AM 25.0694 121.5517 North  Level Estimated
Wed 06:46:00 AM 25.0694 121.5517 North  Level Estimated
Wed 06:47:00 AM 25.0694 121.5517 North  Level Estimated
Wed 06:48:00 AM 25.0694 121.5517 North  Level Estimated
Wed 06:49:00 AM 25.0694 121.5517 North  Level Estimated
Wed 06:50:00 AM 25.0694 121.5517 North  Level Estimated
Wed 06:51:00 AM 25.0694 121.5517 North  Level Estimated

Login

Don't have an account? Register now (free) for customized features, flight alerts, and more!